createdAt,value
2019-03-29T00:00:32.246Z,25.81
2019-03-29T00:03:02.609Z,25.72
2019-03-29T00:05:32.681Z,25.64
2019-03-29T00:08:02.853Z,25.58
2019-03-29T00:10:32.876Z,25.52
2019-03-29T00:13:03.018Z,25.46
2019-03-29T00:15:33.952Z,25.42
2019-03-29T00:18:04.245Z,25.37
2019-03-29T00:20:34.299Z,25.33
2019-03-29T00:23:04.392Z,25.29
2019-03-29T00:25:34.567Z,25.25
2019-03-29T00:28:05.555Z,25.21
2019-03-29T00:30:35.680Z,25.24
2019-03-29T00:33:05.759Z,25.19
2019-03-29T00:35:35.862Z,25.14
2019-03-29T00:38:05.915Z,25.11
2019-03-29T00:40:35.983Z,25.09
2019-03-29T00:43:06.104Z,25.05
2019-03-29T00:45:36.105Z,25.03
2019-03-29T00:48:06.147Z,24.99
2019-03-29T00:50:36.296Z,24.94
2019-03-29T00:53:06.304Z,24.94
2019-03-29T00:55:36.457Z,24.92
2019-03-29T00:58:06.577Z,24.89
2019-03-29T01:00:36.645Z,24.85
2019-03-29T01:03:06.877Z,24.82
2019-03-29T01:05:36.930Z,24.83
2019-03-29T01:08:09.429Z,24.81
2019-03-29T01:10:39.132Z,24.78
2019-03-29T01:13:09.280Z,24.77
2019-03-29T01:15:39.303Z,24.77
2019-03-29T01:18:09.325Z,24.78
2019-03-29T01:20:39.411Z,24.77
2019-03-29T01:23:09.496Z,24.74
2019-03-29T01:25:39.522Z,24.76
2019-03-29T01:28:09.636Z,24.74
2019-03-29T01:30:41.924Z,24.74
2019-03-29T01:33:12.087Z,24.75
2019-03-29T01:35:42.103Z,24.73
2019-03-29T01:38:21.647Z,24.71
2019-03-29T01:40:44.855Z,24.72
2019-03-29T01:43:14.910Z,24.71
2019-03-29T01:45:45.306Z,24.68
2019-03-29T01:48:16.188Z,24.66
2019-03-29T01:50:46.211Z,24.68
2019-03-29T01:53:16.288Z,24.65
2019-03-29T01:55:46.304Z,24.63
2019-03-29T01:58:17.222Z,24.65
2019-03-29T02:00:47.374Z,24.63
2019-03-29T02:03:17.399Z,24.60
2019-03-29T02:05:47.397Z,24.59
2019-03-29T02:08:17.440Z,24.59
2019-03-29T02:10:48.886Z,24.60
2019-03-29T02:13:19.203Z,24.61
2019-03-29T02:15:49.661Z,24.62
2019-03-29T02:18:19.665Z,24.61
2019-03-29T02:20:50.156Z,24.58
2019-03-29T02:23:22.071Z,24.56
2019-03-29T02:25:52.253Z,24.55
2019-03-29T02:28:22.317Z,24.54
2019-03-29T02:30:52.429Z,24.51
2019-03-29T02:33:22.527Z,24.49
2019-03-29T02:35:52.575Z,24.46
2019-03-29T02:38:23.526Z,24.43
2019-03-29T02:40:53.811Z,24.40
2019-03-29T02:43:23.853Z,24.38
2019-03-29T02:45:53.910Z,24.38
2019-03-29T02:48:23.918Z,24.32
2019-03-29T02:50:54.037Z,24.23
2019-03-29T02:53:24.294Z,24.16
2019-03-29T02:55:54.371Z,24.05
2019-03-29T02:58:24.379Z,23.99
2019-03-29T03:00:54.382Z,23.92
2019-03-29T03:03:24.458Z,23.84
2019-03-29T03:05:55.404Z,23.82
2019-03-29T03:08:25.417Z,23.86
2019-03-29T03:10:55.495Z,23.87
2019-03-29T03:13:25.595Z,23.90
2019-03-29T03:15:55.787Z,23.96
2019-03-29T03:18:26.681Z,24.00
2019-03-29T03:20:56.772Z,24.02
2019-03-29T03:23:26.829Z,24.03
2019-03-29T03:25:56.882Z,24.05
2019-03-29T03:28:26.890Z,24.04
2019-03-29T03:30:57.041Z,24.06
2019-03-29T03:33:27.161Z,24.05
2019-03-29T03:35:57.240Z,24.10
2019-03-29T03:38:27.285Z,24.04
2019-03-29T03:40:57.358Z,24.05
2019-03-29T03:43:27.437Z,24.21
2019-03-29T03:45:57.521Z,24.44
2019-03-29T03:48:27.788Z,24.62
2019-03-29T03:50:57.952Z,24.73
2019-03-29T03:53:28.091Z,24.84
2019-03-29T03:56:00.129Z,24.79
2019-03-29T03:58:31.296Z,24.68
2019-03-29T04:01:01.705Z,24.57
2019-03-29T04:03:31.754Z,24.49
2019-03-29T04:06:01.958Z,24.43
2019-03-29T04:08:32.141Z,24.34
2019-03-29T04:11:02.207Z,24.29
2019-03-29T04:13:34.664Z,24.24
2019-03-29T04:16:04.894Z,24.23
2019-03-29T04:18:35.155Z,24.22
2019-03-29T04:21:05.325Z,24.24
2019-03-29T04:23:36.430Z,24.23
2019-03-29T04:26:06.532Z,24.21
2019-03-29T04:28:36.593Z,24.19
2019-03-29T04:31:06.833Z,24.17
2019-03-29T04:33:37.081Z,24.13
2019-03-29T04:36:07.335Z,24.12
2019-03-29T04:38:37.397Z,24.10
2019-03-29T04:41:08.920Z,24.06
2019-03-29T04:43:38.898Z,24.04
2019-03-29T04:46:08.976Z,24.03
2019-03-29T04:48:39.014Z,24.02
2019-03-29T04:51:09.126Z,24.01
2019-03-29T04:53:39.194Z,23.98
2019-03-29T04:56:09.184Z,23.96
2019-03-29T04:58:39.275Z,23.94
2019-03-29T05:01:10.251Z,23.88
2019-03-29T05:03:40.259Z,23.87
2019-03-29T05:06:10.319Z,23.82
2019-03-29T05:08:40.413Z,23.81
2019-03-29T05:11:10.491Z,23.79
2019-03-29T05:13:40.518Z,23.76
2019-03-29T05:16:10.598Z,23.74
2019-03-29T05:18:40.648Z,23.70
2019-03-29T05:21:10.689Z,23.70
2019-03-29T05:23:41.675Z,23.71
2019-03-29T05:26:11.739Z,23.72
2019-03-29T05:28:41.843Z,23.72
2019-03-29T05:31:11.883Z,23.69
2019-03-29T05:33:41.888Z,23.67
2019-03-29T05:36:11.964Z,23.66
2019-03-29T05:38:41.994Z,23.66
2019-03-29T05:41:12.219Z,23.60
2019-03-29T05:43:42.257Z,23.49
2019-03-29T05:46:12.318Z,23.40
2019-03-29T05:48:42.396Z,23.31
2019-03-29T05:51:12.573Z,23.27
2019-03-29T05:53:42.654Z,23.21
2019-03-29T05:56:12.686Z,23.22
2019-03-29T05:58:42.753Z,23.23
2019-03-29T06:01:12.783Z,23.24
2019-03-29T06:03:42.911Z,23.26
2019-03-29T06:06:12.968Z,23.26
2019-03-29T06:08:42.980Z,23.27
2019-03-29T06:11:13.056Z,23.28
2019-03-29T06:13:43.123Z,23.28
2019-03-29T06:16:13.171Z,23.27
2019-03-29T06:18:43.277Z,23.26
2019-03-29T06:21:13.403Z,23.25
2019-03-29T06:23:45.437Z,23.25
2019-03-29T06:26:15.456Z,23.27
2019-03-29T06:28:45.620Z,23.36
2019-03-29T06:31:15.767Z,23.43
2019-03-29T06:33:45.806Z,23.50
2019-03-29T06:36:17.641Z,23.56
2019-03-29T06:38:51.075Z,23.56
2019-03-29T06:41:22.023Z,23.59
2019-03-29T06:43:52.170Z,23.60
2019-03-29T06:46:23.137Z,23.61
2019-03-29T06:48:53.195Z,23.73
2019-03-29T06:51:23.297Z,24.07
2019-03-29T06:53:53.388Z,24.21
2019-03-29T06:56:23.498Z,24.26
2019-03-29T06:58:53.590Z,24.27
2019-03-29T07:01:23.635Z,24.19
2019-03-29T07:03:53.720Z,24.10
2019-03-29T07:06:23.856Z,24.04
2019-03-29T07:08:53.950Z,23.97
2019-03-29T07:11:24.434Z,23.91
2019-03-29T07:13:57.905Z,23.83
2019-03-29T07:16:26.380Z,23.80
2019-03-29T07:18:56.474Z,23.76
2019-03-29T07:21:26.514Z,23.72
2019-03-29T07:23:56.740Z,23.71
2019-03-29T07:26:26.812Z,23.67
2019-03-29T07:28:57.010Z,23.65
2019-03-29T07:31:27.106Z,23.56
2019-03-29T07:33:58.639Z,23.50
2019-03-29T07:36:28.732Z,23.46
2019-03-29T07:38:58.843Z,23.40
2019-03-29T07:41:32.155Z,23.37
2019-03-29T07:44:00.918Z,23.34
2019-03-29T07:46:31.023Z,23.30
2019-03-29T07:49:01.132Z,23.31
2019-03-29T07:51:31.307Z,23.27
2019-03-29T07:54:01.483Z,23.23
2019-03-29T07:56:31.526Z,23.22
2019-03-29T07:59:01.562Z,23.19
2019-03-29T08:01:32.636Z,23.15
2019-03-29T08:04:02.783Z,23.14
2019-03-29T08:06:32.954Z,23.30
2019-03-29T08:09:03.096Z,23.31
2019-03-29T08:11:45.590Z,23.28
2019-03-29T08:14:05.039Z,23.33
2019-03-29T08:16:35.082Z,23.65
2019-03-29T08:19:05.120Z,24.08
2019-03-29T08:21:35.137Z,24.71
2019-03-29T08:24:05.303Z,25.48
2019-03-29T08:26:35.496Z,25.98
2019-03-29T08:29:05.620Z,26.33
2019-03-29T08:31:35.712Z,26.61
2019-03-29T08:34:05.936Z,26.53
2019-03-29T08:36:36.004Z,26.54
2019-03-29T08:39:10.086Z,26.52
2019-03-29T08:41:39.379Z,26.40
2019-03-29T08:44:11.871Z,26.29
2019-03-29T08:46:41.455Z,26.29
2019-03-29T08:49:11.857Z,26.19
2019-03-29T08:51:42.032Z,26.20
2019-03-29T08:54:12.115Z,26.05
2019-03-29T08:56:42.199Z,26.16
2019-03-29T08:59:12.367Z,26.13
2019-03-29T09:01:42.346Z,26.05
2019-03-29T09:04:12.379Z,26.12
2019-03-29T09:06:53.202Z,26.14
2019-03-29T09:09:14.840Z,26.13
2019-03-29T09:11:44.905Z,26.33
2019-03-29T09:14:14.957Z,26.63
2019-03-29T09:16:44.995Z,26.91
2019-03-29T09:19:17.775Z,27.14
2019-03-29T09:21:47.944Z,27.02
2019-03-29T09:24:22.111Z,26.85
2019-03-29T09:26:51.004Z,26.74
2019-03-29T09:29:21.246Z,26.57
2019-03-29T09:31:51.339Z,26.38
2019-03-29T09:34:21.448Z,26.25
2019-03-29T09:36:51.606Z,26.05
2019-03-29T09:39:21.707Z,25.93
2019-03-29T09:41:51.873Z,25.79
2019-03-29T09:44:21.973Z,25.63
2019-03-29T09:46:55.743Z,25.54
2019-03-29T09:49:25.858Z,25.41
2019-03-29T09:51:55.947Z,25.28
2019-03-29T09:54:26.101Z,25.20
2019-03-29T09:56:56.208Z,25.11
2019-03-29T09:59:26.349Z,25.01
2019-03-29T10:01:56.749Z,24.93
2019-03-29T10:04:26.828Z,24.84
2019-03-29T10:06:56.932Z,24.78
2019-03-29T10:09:27.044Z,24.70
2019-03-29T10:11:57.200Z,24.63
2019-03-29T10:14:27.464Z,24.55
2019-03-29T10:16:57.767Z,24.47
2019-03-29T10:19:27.984Z,24.42
2019-03-29T10:21:58.082Z,24.38
2019-03-29T10:24:28.144Z,24.34
2019-03-29T10:26:58.284Z,24.29
2019-03-29T10:29:28.467Z,24.25
2019-03-29T10:31:58.543Z,24.21
2019-03-29T10:34:28.625Z,24.18
2019-03-29T10:36:58.676Z,24.13
2019-03-29T10:39:28.758Z,24.08
2019-03-29T10:41:58.812Z,24.04
2019-03-29T10:44:29.942Z,23.98
2019-03-29T10:47:00.093Z,24.00
2019-03-29T10:49:30.443Z,24.14
2019-03-29T10:52:00.487Z,24.12
2019-03-29T10:54:30.569Z,24.63
2019-03-29T10:57:00.608Z,25.06
2019-03-29T10:59:30.672Z,25.38
2019-03-29T11:02:00.744Z,26.11
2019-03-29T11:04:32.131Z,27.00
2019-03-29T11:07:02.687Z,27.06
2019-03-29T11:09:32.757Z,27.82
2019-03-29T11:12:03.020Z,28.25
2019-03-29T11:14:33.106Z,28.46
2019-03-29T11:17:03.693Z,28.55
2019-03-29T11:19:33.819Z,28.52
2019-03-29T11:22:03.990Z,28.57
2019-03-29T11:24:34.183Z,28.44
2019-03-29T11:27:04.392Z,28.62
2019-03-29T11:29:34.504Z,28.79
2019-03-29T11:32:04.869Z,28.76
2019-03-29T11:34:36.389Z,28.64
2019-03-29T11:37:06.479Z,28.74
2019-03-29T11:39:36.596Z,28.59
2019-03-29T11:42:07.007Z,28.57
2019-03-29T11:44:37.110Z,28.62
2019-03-29T11:47:07.339Z,28.39
2019-03-29T11:49:37.385Z,28.26
2019-03-29T11:52:07.684Z,28.20
2019-03-29T11:54:38.071Z,28.09
2019-03-29T11:57:08.210Z,28.02
2019-03-29T11:59:40.108Z,27.95
2019-03-29T12:02:10.276Z,27.82
2019-03-29T12:04:40.318Z,27.67
2019-03-29T12:07:10.511Z,27.60
2019-03-29T12:09:40.622Z,27.53
2019-03-29T12:12:11.405Z,27.51
2019-03-29T12:14:41.461Z,27.41
2019-03-29T12:17:11.531Z,27.31
2019-03-29T12:19:41.637Z,27.61
2019-03-29T12:22:11.712Z,28.05
2019-03-29T12:24:41.795Z,28.22
2019-03-29T12:27:11.925Z,28.23
2019-03-29T12:29:42.038Z,28.07
2019-03-29T12:32:12.184Z,27.96
2019-03-29T12:34:42.319Z,27.93
2019-03-29T12:37:12.408Z,27.86
2019-03-29T12:39:42.479Z,27.74
2019-03-29T12:42:12.572Z,27.68
2019-03-29T12:44:42.594Z,27.69
2019-03-29T12:47:12.663Z,27.60
2019-03-29T12:49:42.694Z,27.56
2019-03-29T12:52:12.790Z,27.45
2019-03-29T12:54:42.942Z,27.21
2019-03-29T12:57:12.984Z,27.06
2019-03-29T12:59:43.043Z,26.92
2019-03-29T13:02:13.478Z,26.89
2019-03-29T13:04:46.941Z,26.77
2019-03-29T13:07:16.804Z,26.68
2019-03-29T13:09:46.823Z,26.61
2019-03-29T13:12:17.726Z,26.46
2019-03-29T13:14:47.850Z,26.38
2019-03-29T13:17:18.129Z,26.25
2019-03-29T13:19:48.391Z,26.13
2019-03-29T13:22:19.147Z,26.00
2019-03-29T13:24:49.281Z,25.89
2019-03-29T13:27:19.609Z,25.82
2019-03-29T13:29:49.688Z,25.74
2019-03-29T13:32:19.731Z,25.64
2019-03-29T13:34:51.460Z,25.54
2019-03-29T13:37:21.862Z,25.48
2019-03-29T13:39:51.932Z,25.43
2019-03-29T13:42:22.059Z,25.37
2019-03-29T13:44:52.146Z,25.52
2019-03-29T13:47:22.187Z,25.64
2019-03-29T13:49:52.217Z,25.71
2019-03-29T13:52:22.309Z,25.73
2019-03-29T13:54:52.414Z,25.74
2019-03-29T13:57:22.555Z,25.67
2019-03-29T13:59:52.693Z,25.61
2019-03-29T14:02:22.809Z,25.55
2019-03-29T14:04:52.991Z,25.49
2019-03-29T14:07:23.061Z,25.43
2019-03-29T14:09:53.110Z,25.35
2019-03-29T14:12:23.277Z,25.26
2019-03-29T14:14:53.375Z,25.19
2019-03-29T14:17:23.485Z,25.09
2019-03-29T14:19:53.625Z,25.04
2019-03-29T14:22:23.759Z,24.96
2019-03-29T14:24:54.310Z,24.90
2019-03-29T14:27:24.579Z,24.82
2019-03-29T14:30:04.197Z,24.75
2019-03-29T14:32:28.513Z,24.69
2019-03-29T14:34:58.671Z,24.66
2019-03-29T14:37:28.843Z,24.63
2019-03-29T14:39:58.969Z,24.61
2019-03-29T14:42:29.110Z,24.57
2019-03-29T14:44:59.274Z,24.52
2019-03-29T14:47:41.198Z,24.50
2019-03-29T14:50:01.236Z,24.45
2019-03-29T14:52:31.464Z,24.41
2019-03-29T14:55:01.580Z,24.39
2019-03-29T14:57:31.712Z,24.37
2019-03-29T15:00:02.973Z,24.37
2019-03-29T15:02:33.151Z,24.34
2019-03-29T15:05:03.331Z,24.30
2019-03-29T15:07:33.499Z,24.28
2019-03-29T15:10:06.471Z,24.24
2019-03-29T15:12:36.537Z,24.21
2019-03-29T15:15:07.305Z,24.21
2019-03-29T15:17:37.611Z,24.17
2019-03-29T15:20:08.723Z,24.17
2019-03-29T15:22:38.888Z,24.17
2019-03-29T15:25:09.103Z,24.32
2019-03-29T15:27:39.444Z,24.53
2019-03-29T15:30:10.059Z,24.64
2019-03-29T15:32:40.163Z,24.82
2019-03-29T15:35:10.462Z,25.04
2019-03-29T15:37:40.565Z,25.24
2019-03-29T15:40:10.909Z,25.44
2019-03-29T15:42:41.094Z,25.70
2019-03-29T15:45:20.300Z,25.45
2019-03-29T15:47:44.415Z,25.50
2019-03-29T15:50:14.545Z,25.53
2019-03-29T15:52:44.687Z,25.38
2019-03-29T15:55:14.819Z,25.29
2019-03-29T15:57:44.900Z,25.16
2019-03-29T16:00:15.542Z,25.07
2019-03-29T16:02:45.721Z,24.98
2019-03-29T16:05:15.802Z,24.86
2019-03-29T16:07:45.904Z,24.76
2019-03-29T16:10:15.995Z,24.67
2019-03-29T16:12:48.645Z,24.59
2019-03-29T16:15:18.928Z,24.49
2019-03-29T16:17:49.188Z,24.41
2019-03-29T16:20:19.844Z,24.36
2019-03-29T16:22:49.916Z,24.30
2019-03-29T16:25:20.116Z,24.27
2019-03-29T16:27:50.223Z,24.24
2019-03-29T16:30:20.415Z,24.17
2019-03-29T16:32:50.445Z,24.13
2019-03-29T16:35:21.892Z,24.08
2019-03-29T16:37:57.423Z,24.04
2019-03-29T16:40:25.126Z,23.99
2019-03-29T16:42:55.201Z,23.93
2019-03-29T16:45:25.282Z,23.86
2019-03-29T16:47:55.427Z,23.81
2019-03-29T16:50:25.574Z,23.79
2019-03-29T16:52:55.875Z,23.74
2019-03-29T16:55:25.987Z,23.75
2019-03-29T16:57:56.172Z,23.82
2019-03-29T17:00:26.370Z,23.83
2019-03-29T17:02:56.485Z,24.07
2019-03-29T17:05:26.590Z,24.26
2019-03-29T17:07:56.726Z,24.32
2019-03-29T17:10:27.141Z,24.57
2019-03-29T17:12:57.332Z,24.59
2019-03-29T17:15:27.457Z,24.60
2019-03-29T17:17:57.892Z,24.68
2019-03-29T17:20:28.050Z,24.67
2019-03-29T17:22:58.100Z,24.69
2019-03-29T17:25:28.529Z,24.77
2019-03-29T17:27:58.678Z,24.80
2019-03-29T17:30:43.247Z,24.81
2019-03-29T17:33:13.513Z,24.95
2019-03-29T17:35:43.648Z,24.96
2019-03-29T17:38:13.896Z,25.19
2019-03-29T17:40:44.045Z,25.27
2019-03-29T17:43:14.195Z,25.18
2019-03-29T17:45:44.322Z,25.16
2019-03-29T17:48:14.502Z,25.31
2019-03-29T17:50:44.559Z,25.45
2019-03-29T17:53:14.650Z,25.34
2019-03-29T17:55:44.940Z,25.27
2019-03-29T17:58:15.224Z,25.15
2019-03-29T18:00:45.484Z,25.05
2019-03-29T18:03:15.671Z,25.00
2019-03-29T18:05:45.754Z,24.94
2019-03-29T18:08:15.915Z,24.90
2019-03-29T18:10:46.072Z,24.73
2019-03-29T18:13:16.192Z,24.74
2019-03-29T18:15:46.374Z,24.70
2019-03-29T18:18:16.537Z,24.62
2019-03-29T18:20:46.719Z,24.57
2019-03-29T18:23:16.860Z,24.52
2019-03-29T18:25:47.142Z,24.45
2019-03-29T18:28:17.419Z,24.34
2019-03-29T18:30:47.577Z,24.30
2019-03-29T18:33:18.116Z,24.28
2019-03-29T18:35:48.198Z,24.21
2019-03-29T18:38:18.310Z,24.10
2019-03-29T18:40:48.409Z,24.10
2019-03-29T18:43:18.528Z,24.08
2019-03-29T18:45:48.577Z,24.03
2019-03-29T18:48:18.776Z,24.00
2019-03-29T18:50:48.959Z,23.93
2019-03-29T18:53:19.035Z,23.93
2019-03-29T18:55:49.108Z,23.94
2019-03-29T18:58:19.259Z,23.92
2019-03-29T19:00:49.378Z,23.88
2019-03-29T19:03:19.514Z,23.80
2019-03-29T19:05:49.768Z,23.79
2019-03-29T19:08:19.933Z,23.74
2019-03-29T19:10:50.026Z,23.77
2019-03-29T19:13:20.161Z,23.67
2019-03-29T19:15:50.220Z,23.71
2019-03-29T19:18:20.323Z,23.69
2019-03-29T19:20:50.411Z,23.63
2019-03-29T19:23:20.778Z,23.58
2019-03-29T19:25:50.861Z,23.53
2019-03-29T19:28:20.952Z,23.49
2019-03-29T19:30:51.008Z,23.48
2019-03-29T19:33:21.124Z,23.46
2019-03-29T19:35:51.194Z,23.37
2019-03-29T19:38:21.271Z,23.35
2019-03-29T19:40:51.324Z,23.34
2019-03-29T19:43:21.445Z,23.35
2019-03-29T19:45:51.540Z,23.32
2019-03-29T19:48:21.713Z,23.31
2019-03-29T19:50:51.886Z,23.30
2019-03-29T19:53:22.033Z,23.21
2019-03-29T19:55:52.115Z,23.25
2019-03-29T19:58:22.303Z,23.24
2019-03-29T20:00:52.396Z,23.22
2019-03-29T20:03:22.722Z,23.22
2019-03-29T20:05:52.806Z,23.16
2019-03-29T20:08:22.937Z,23.13
2019-03-29T20:10:53.448Z,23.11
2019-03-29T20:13:23.961Z,23.11
2019-03-29T20:15:54.183Z,23.12
2019-03-29T20:18:24.294Z,23.07
2019-03-29T20:20:54.407Z,23.08
2019-03-29T20:23:24.529Z,23.08
2019-03-29T20:25:54.664Z,23.06
2019-03-29T20:28:24.837Z,23.06
2019-03-29T20:30:54.993Z,23.03
2019-03-29T20:33:25.075Z,23.00
2019-03-29T20:35:55.204Z,23.02
2019-03-29T20:38:25.366Z,23.01
2019-03-29T20:40:57.881Z,23.03
2019-03-29T20:43:28.006Z,23.01
2019-03-29T20:45:59.195Z,22.99
2019-03-29T20:48:29.260Z,23.15
2019-03-29T20:50:59.335Z,23.30
2019-03-29T20:53:29.408Z,23.50
2019-03-29T20:55:59.485Z,23.46
2019-03-29T20:58:29.624Z,23.46
2019-03-29T21:00:59.774Z,23.41
2019-03-29T21:03:29.812Z,23.41
2019-03-29T21:05:59.845Z,23.41
2019-03-29T21:08:29.966Z,23.40
2019-03-29T21:11:00.056Z,23.42
2019-03-29T21:13:30.169Z,23.40
2019-03-29T21:16:00.240Z,23.40
2019-03-29T21:18:30.340Z,23.41
2019-03-29T21:21:01.637Z,23.40
2019-03-29T21:23:31.759Z,23.39
2019-03-29T21:26:01.975Z,23.38
2019-03-29T21:28:34.927Z,23.39
2019-03-29T21:31:03.905Z,23.39
2019-03-29T21:33:33.979Z,23.39
2019-03-29T21:36:05.131Z,23.40
2019-03-29T21:38:35.208Z,23.38
2019-03-29T21:41:05.514Z,23.38
2019-03-29T21:43:35.692Z,23.37
2019-03-29T21:46:06.841Z,23.37
2019-03-29T21:48:36.929Z,23.38
2019-03-29T21:51:07.060Z,23.36
2019-03-29T21:53:37.158Z,23.37
2019-03-29T21:56:07.209Z,23.41
2019-03-29T21:58:37.410Z,23.41
2019-03-29T22:01:07.491Z,23.43
2019-03-29T22:03:37.594Z,23.51
2019-03-29T22:06:07.751Z,23.61
2019-03-29T22:08:37.873Z,23.67
2019-03-29T22:11:08.050Z,23.70
2019-03-29T22:13:38.203Z,23.76
2019-03-29T22:16:08.249Z,23.79
2019-03-29T22:18:38.581Z,23.82
2019-03-29T22:21:08.763Z,23.84
2019-03-29T22:23:38.865Z,23.88
2019-03-29T22:26:10.253Z,23.88
2019-03-29T22:28:41.026Z,23.93
2019-03-29T22:31:11.332Z,23.94
2019-03-29T22:33:41.415Z,23.98
2019-03-29T22:36:11.573Z,23.98
2019-03-29T22:38:41.787Z,24.00
2019-03-29T22:41:11.988Z,24.03
2019-03-29T22:43:42.080Z,24.04
2019-03-29T22:46:12.200Z,24.06
2019-03-29T22:48:52.090Z,24.07
2019-03-29T22:51:14.218Z,24.08
2019-03-29T22:53:44.276Z,24.09
2019-03-29T22:56:14.405Z,24.10
2019-03-29T22:58:44.526Z,24.12
2019-03-29T23:01:14.915Z,24.11
2019-03-29T23:03:45.076Z,24.13
2019-03-29T23:06:15.235Z,24.14
2019-03-29T23:08:45.389Z,24.14
2019-03-29T23:11:15.492Z,24.14
2019-03-29T23:13:45.588Z,24.14
2019-03-29T23:16:15.740Z,24.17
2019-03-29T23:18:45.828Z,24.36
2019-03-29T23:21:15.960Z,24.44
2019-03-29T23:23:46.055Z,24.44
2019-03-29T23:26:16.185Z,24.37
2019-03-29T23:28:46.261Z,24.31
2019-03-29T23:31:16.397Z,24.25
2019-03-29T23:33:46.508Z,24.21
2019-03-29T23:36:16.600Z,24.16
2019-03-29T23:38:47.170Z,24.09
2019-03-29T23:41:17.293Z,24.05
2019-03-29T23:43:47.332Z,24.03
2019-03-29T23:46:17.455Z,23.99
2019-03-29T23:48:47.598Z,23.98
2019-03-29T23:51:17.598Z,23.95
2019-03-29T23:53:48.029Z,23.95
2019-03-29T23:56:18.086Z,23.93
2019-03-29T23:58:48.294Z,23.92
